Airfield :







YOU CAN JOIN US ON...

 
LOGIN :

Register | Disclaimer

   EN    FR    IT 

 









Legend :    VFR   Marginal VFR   IFR   Intensive IFR   Very Intensive IFR
Visi :
Ceiling :
>= 8 km
>= 3000ft
5 to 8 km
1000 to 3000 ft
1500m to 5 km
500 to 1000 ft
800 to 1500m
200 to 500 ft
< 800m
< 200 ft
Symbols :   Thunderstorms  Fog  Heavy snow  Heavy precipitations  Wind > 20 kt






- Airport Elevation : 84 ft
- IATA code : YJT


CYJT - Stephenville

CURRENT METAR :
  • 250500Z 07008KT 15SM FEW010 BKN018 OVC025 13/11 A2957 RMK SF2SC4SC2 SLP016 DENSITY ALT 300FT

EXPIRED METARs :
  • 250400Z 08013KT 15SM FEW010 OVC026 13/11 A2956 RMK SF2SC6 SLP014 DENSITY ALT 400FT
  • 250300Z 07013KT 15SM FEW011 BKN026 BKN220 14/12 A2957 RMK SF1SC4CI2 SLP015 DENSITY ALT 400FT
  • 250200Z 07012KT 15SM SCT010 OVC016 14/12 A2958 RMK SF4SC4 SLP019 DENSITY ALT 400FT
  • 250100Z 07006KT 12SM BKN011 OVC016 14/13 A2960 RMK SF5SC3 SLP026 DENSITY ALT 400FT
  • 250037Z 04004KT 8SM OVC012 12/12 A2961 RMK ST8 SLP028

TAF AMD TAF CYJT
Valid from the 25 at 03:00 until the 26 at 00:00 UTC


250319Z 2503/2524 07012KT P6SM FEW012 BKN030 OVC200
TEMPO 2503/2511 5SM -SHRA BR BKN012 OVC030
PROB40 2505/2508 2SM TSRA BR BKN006 OVC015CB
FM251100 26008KT 3/4SM -RA -DZ BR OVC002
BECMG 2514/2516 23010KT
BECMG 2520/2522 30006KT
FM252200 30006KT 3SM -RA BR BKN006 OVC025 RMK NXT FCST BY 250600Z
CZQX FIR / North America



MET'MAP, your aeronautical weather chart ! - Copyright ORBIFLY December 2007 - Disclaimer

ORBIFLY MET'MAP TEAM :

Programming & Development : Alexandra Zaïnal
Original concept : Baudouin d'Aumeries
Technical & hardware support : Manuel Goepfert
Assistance : Marc-Olivier Méhu




SOURCES & CREDITS :

   NOAA